Time;durP1;ratioP1;P1;durP2;ratioP2;P2;SDS_P1;SDS_P2;PMS_P1;PMS_P2;Temp;Humidity;BMP_temperature;BMP_pressure;BME280_temperature;BME280_humidity;BME280_pressure;Samples;Min_cycle;Max_cycle;Signal;HPM_P1;HPM_P2
2021/06/24 00:02:26;;;;;;;9.68;7.32;;;;;;;14.37;45.12;101556.28;4826393;29;97979;-76
2021/06/24 00:04:55;;;;;;;8.52;6.70;;;;;;;14.34;45.07;101549.06;4809584;29;100641;-76
2021/06/24 00:07:23;;;;;;;7.25;6.65;;;;;;;14.33;45.37;101546.38;4826198;29;97496;-75
2021/06/24 00:09:52;;;;;;;10.27;7.40;;;;;;;14.31;45.28;101541.00;4826019;29;96922;-75
2021/06/24 00:12:21;;;;;;;8.68;7.10;;;;;;;14.30;45.25;101549.00;4823608;29;97938;-76
2021/06/24 00:14:49;;;;;;;6.75;6.15;;;;;;;14.30;45.24;101549.00;4821031;29;99328;-77
2021/06/24 00:17:17;;;;;;;6.60;5.60;;;;;;;14.29;45.31;101542.75;4825531;29;97920;-75
2021/06/24 00:19:45;;;;;;;7.75;6.60;;;;;;;14.31;44.95;101535.63;4824546;29;97160;-77
2021/06/24 00:22:12;;;;;;;7.50;5.88;;;;;;;14.31;45.09;101529.38;4828018;29;97566;-76
2021/06/24 00:24:40;;;;;;;6.50;5.85;;;;;;;14.30;45.26;101522.22;4825551;29;100355;-77
2021/06/24 00:27:09;;;;;;;8.15;6.75;;;;;;;14.30;45.25;101519.56;4809960;29;97207;-75
2021/06/24 00:29:37;;;;;;;7.82;5.95;;;;;;;14.32;45.12;101515.09;4809423;29;97105;-76
2021/06/24 00:32:06;;;;;;;6.47;5.90;;;;;;;14.34;44.91;101510.66;4826957;29;100879;-76
2021/06/24 00:34:34;;;;;;;7.47;5.80;;;;;;;14.34;45.15;101506.22;4808580;29;98961;-77
2021/06/24 00:37:02;;;;;;;8.98;6.70;;;;;;;14.36;44.89;101496.44;4824404;29;97777;-77
2021/06/24 00:39:29;;;;;;;9.18;6.40;;;;;;;14.39;45.06;101487.59;4826376;29;97361;-77
2021/06/24 00:41:57;;;;;;;9.30;6.60;;;;;;;14.41;44.87;101488.50;4823776;29;98492;-76
2021/06/24 00:44:26;;;;;;;9.70;6.57;;;;;;;14.44;44.87;101485.88;4824348;29;97744;-76
2021/06/24 00:46:55;;;;;;;8.18;6.88;;;;;;;14.43;44.98;101490.31;4807496;29;97611;-77
2021/06/24 00:49:23;;;;;;;8.02;6.82;;;;;;;14.43;44.89;101487.63;4823643;29;97125;-74
2021/06/24 00:51:51;;;;;;;9.50;6.65;;;;;;;14.44;45.13;101491.22;4822986;29;101085;-76
2021/06/24 00:54:19;;;;;;;8.13;7.35;;;;;;;14.44;45.25;101488.56;4825932;29;102547;-75
2021/06/24 00:56:48;;;;;;;11.13;7.57;;;;;;;14.46;45.06;101495.75;4809871;29;97395;-76
2021/06/24 00:59:17;;;;;;;8.85;7.28;;;;;;;14.45;45.23;101495.69;4795337;29;97609;-75
2021/06/24 01:01:46;;;;;;;8.95;7.15;;;;;;;14.44;45.04;101494.81;4808126;29;99686;-74
2021/06/24 01:04:19;;;;;;;9.30;7.47;;;;;;;14.45;45.15;101507.31;4824817;29;100420;-74
2021/06/24 01:06:47;;;;;;;8.73;7.70;;;;;;;14.44;45.03;101509.97;4807234;29;96827;-75
2021/06/24 01:09:15;;;;;;;8.95;7.60;;;;;;;14.44;45.39;101518.00;4808458;29;98183;-76
2021/06/24 01:11:43;;;;;;;11.90;7.75;;;;;;;14.43;45.20;101527.81;4822910;29;99478;-75
2021/06/24 01:14:12;;;;;;;10.43;7.63;;;;;;;14.41;45.34;101518.84;4807276;29;100073;-75
2021/06/24 01:16:42;;;;;;;10.40;7.28;;;;;;;14.41;45.08;101515.28;4825250;29;98405;-75
2021/06/24 01:19:12;;;;;;;7.82;7.13;;;;;;;14.39;45.46;101517.91;4826066;29;97473;-75
2021/06/24 01:21:40;;;;;;;8.48;7.57;;;;;;;14.38;45.41;101516.13;4806195;29;100456;-75
2021/06/24 01:24:10;;;;;;;13.25;7.57;;;;;;;14.38;45.33;101518.81;4808897;29;99585;-74
2021/06/24 01:26:40;;;;;;;9.75;7.57;;;;;;;14.34;45.50;101518.72;4823097;29;98601;-75
2021/06/24 01:29:09;;;;;;;9.48;7.22;;;;;;;14.31;45.76;101506.19;4824237;29;97701;-75
2021/06/24 01:31:37;;;;;;;9.20;7.65;;;;;;;14.31;45.61;101503.50;4824824;29;99380;-75
2021/06/24 01:34:06;;;;;;;8.43;7.53;;;;;;;14.33;45.69;101506.22;4808767;29;100614;-76
2021/06/24 01:36:34;;;;;;;10.27;8.23;;;;;;;14.32;45.52;101501.72;4824098;29;97320;-76
2021/06/24 01:39:04;;;;;;;8.68;7.78;;;;;;;14.33;45.83;101495.50;4809673;29;98035;-76
2021/06/24 01:41:37;;;;;;;8.75;7.95;;;;;;;14.30;45.83;101490.09;4810110;29;99640;-74
2021/06/24 01:44:11;;;;;;;8.65;7.30;;;;;;;14.28;45.57;101499.88;4808856;29;99309;-75
2021/06/24 01:46:38;;;;;;;9.85;8.10;;;;;;;14.27;45.68;101492.72;4807284;29;97865;-75
2021/06/24 01:49:06;;;;;;;9.75;8.77;;;;;;;14.25;46.05;101492.69;4808893;29;98342;-75
2021/06/24 01:51:34;;;;;;;8.40;7.53;;;;;;;14.25;45.91;101503.38;4805466;29;99244;-75
2021/06/24 01:54:03;;;;;;;9.95;8.85;;;;;;;14.23;46.12;101504.22;4822979;29;97795;-74
2021/06/24 01:56:30;;;;;;;10.38;8.55;;;;;;;14.19;46.21;101503.28;4821986;29;97218;-75
2021/06/24 01:59:01;;;;;;;9.85;8.90;;;;;;;14.17;46.21;101509.50;4807881;29;97997;-74
2021/06/24 02:01:55;;;;;;;10.70;9.20;;;;;;;14.13;46.31;101504.06;4815874;29;101557;-75
2021/06/24 02:05:02;;;;;;;9.50;8.50;;;;;;;14.12;46.25;101513.00;4809920;29;99822;-75
2021/06/24 02:07:32;;;;;;;10.63;9.35;;;;;;;14.11;46.38;101516.56;4806141;29;97227;-76
2021/06/24 02:10:20;;;;;;;12.48;9.38;;;;;;;14.11;46.35;101511.19;4822223;29;98502;-76
2021/06/24 02:12:58;;;;;;;13.10;10.68;;;;;;;14.11;46.31;101508.53;4808643;29;100478;-76
2021/06/24 02:15:29;;;;;;;9.93;8.95;;;;;;;14.11;46.50;101512.97;4820619;29;102006;-75
2021/06/24 02:17:57;;;;;;;13.35;10.70;;;;;;;14.09;46.59;101518.28;4822694;29;96869;-75
2021/06/24 02:20:47;;;;;;;15.55;10.68;;;;;;;14.08;46.49;101524.50;4822243;29;97878;-75
2021/06/24 02:23:28;;;;;;;11.75;10.52;;;;;;;14.06;46.72;101523.56;4805490;29;102176;-75
2021/06/24 02:26:06;;;;;;;13.68;10.77;;;;;;;14.05;46.85;101520.88;4821077;29;100902;-75
2021/06/24 02:28:49;;;;;;;16.10;11.25;;;;;;;14.03;46.70;101523.53;4807602;29;98209;-75
2021/06/24 02:31:25;;;;;;;12.65;10.70;;;;;;;14.03;46.77;101518.16;4824475;29;98007;-75
2021/06/24 02:33:53;;;;;;;12.85;11.55;;;;;;;13.98;46.90;101519.88;4806935;29;99226;-76
2021/06/24 02:36:30;;;;;;;14.95;10.75;;;;;;;13.96;46.88;101513.59;4821922;29;98837;-75
2021/06/24 02:38:58;;;;;;;16.10;11.68;;;;;;;13.97;47.02;101510.00;4824120;29;97448;-76
2021/06/24 02:41:26;;;;;;;16.88;12.25;;;;;;;13.97;46.92;101507.34;4823604;29;97294;-75
2021/06/24 02:43:54;;;;;;;11.88;10.68;;;;;;;13.96;47.01;101500.19;4806485;29;99600;-76
2021/06/24 02:46:22;;;;;;;14.45;10.98;;;;;;;13.93;47.13;101492.09;4806747;29;99648;-75
2021/06/24 02:48:54;;;;;;;12.63;11.30;;;;;;;13.92;47.11;101492.06;4824886;29;97285;-76
2021/06/24 02:51:35;;;;;;;11.52;10.40;;;;;;;13.91;47.39;101485.84;4823308;29;97438;-75
2021/06/24 02:54:13;;;;;;;13.63;12.18;;;;;;;13.93;47.17;101488.53;4825295;29;100709;-74
2021/06/24 02:56:43;;;;;;;21.00;17.42;;;;;;;13.95;47.18;101478.78;4811664;29;101096;-75
2021/06/24 02:59:29;;;;;;;36.72;26.48;;;;;;;13.92;47.34;101482.28;4825519;29;98348;-76
2021/06/24 03:01:59;;;;;;;21.13;13.65;;;;;;;13.94;47.22;101487.66;4810587;29;97863;-76
2021/06/24 03:04:32;;;;;;;11.90;10.65;;;;;;;13.94;47.30;101485.88;4824999;29;98753;-77
2021/06/24 03:07:01;;;;;;;12.20;11.00;;;;;;;13.91;47.23;101484.94;4826937;29;98534;-76
2021/06/24 03:09:33;;;;;;;12.05;10.80;;;;;;;13.91;47.35;101480.50;4810242;29;97741;-76
2021/06/24 03:12:02;;;;;;;13.10;10.68;;;;;;;13.93;47.29;101484.06;4810001;29;97362;-76
2021/06/24 03:14:32;;;;;;;12.32;11.07;;;;;;;13.92;47.29;101482.28;4806437;29;101510;-75
2021/06/24 03:17:00;;;;;;;12.93;11.25;;;;;;;13.92;47.21;101482.28;4824324;29;97697;-74
2021/06/24 03:19:28;;;;;;;11.95;10.68;;;;;;;13.92;47.19;101476.94;4825053;29;97894;-76
2021/06/24 03:22:08;;;;;;;11.95;9.95;;;;;;;13.90;47.31;101467.97;4809908;29;97000;-75
2021/06/24 03:24:50;;;;;;;15.85;10.65;;;;;;;13.91;47.07;101461.75;4827566;29;99287;-74
2021/06/24 03:27:22;;;;;;;13.95;10.02;;;;;;;13.90;47.26;101456.34;4825506;29;100198;-75
2021/06/24 03:30:13;;;;;;;11.75;10.50;;;;;;;13.88;47.40;101453.66;4825831;29;97622;-74
2021/06/24 03:32:42;;;;;;;13.38;10.85;;;;;;;13.90;47.36;101451.00;4811292;29;98364;-75
2021/06/24 03:35:11;;;;;;;13.65;11.63;;;;;;;13.90;47.39;101446.56;4826060;29;100898;-76
2021/06/24 03:37:40;;;;;;;14.18;12.10;;;;;;;13.90;47.40;101446.56;4808835;29;98725;-75
2021/06/24 03:40:15;;;;;;;15.80;11.15;;;;;;;13.86;47.47;101442.03;4809660;29;97581;-76
2021/06/24 03:42:43;;;;;;;14.70;10.90;;;;;;;13.88;47.56;101442.94;4820901;29;97627;-75
2021/06/24 03:45:12;;;;;;;17.35;10.90;;;;;;;13.87;47.67;101441.16;4824453;28;101775;-75
2021/06/24 03:47:41;;;;;;;12.43;11.13;;;;;;;13.88;47.47;101437.59;4809726;29;99723;-75
2021/06/24 03:50:12;;;;;;;13.10;10.55;;;;;;;13.91;47.43;101435.00;4824430;29;97441;-75
2021/06/24 03:52:43;;;;;;;11.10;10.02;;;;;;;13.91;47.46;101432.34;4802031;29;97874;-76
2021/06/24 03:55:12;;;;;;;14.27;11.10;;;;;;;13.89;47.57;101434.06;4834290;28;99051;-74
2021/06/24 03:58:00;;;;;;;13.98;11.15;;;;;;;13.88;47.64;101440.28;4806466;29;99581;-75
2021/06/24 04:00:29;;;;;;;12.02;10.70;;;;;;;13.90;47.63;101430.50;4809315;29;98257;-73
2021/06/24 04:03:07;;;;;;;15.70;10.23;;;;;;;13.90;47.62;101433.19;4806203;29;98082;-74
2021/06/24 04:05:48;;;;;;;13.27;10.82;;;;;;;13.90;47.64;101426.91;4809144;29;99260;-75
2021/06/24 04:08:17;;;;;;;13.63;11.20;;;;;;;13.90;47.54;101432.28;4824253;29;99278;-75
2021/06/24 04:11:14;;;;;;;12.52;11.13;;;;;;;13.90;47.62;101430.50;4824662;29;97219;-74
2021/06/24 04:13:46;;;;;;;11.88;10.63;;;;;;;13.88;47.58;101426.91;4809775;29;97252;-75
2021/06/24 04:16:33;;;;;;;11.80;9.60;;;;;;;13.88;47.58;101432.25;4825095;29;98349;-75
2021/06/24 04:19:03;;;;;;;13.68;10.15;;;;;;;13.86;47.76;101431.31;4825216;29;98758;-75
2021/06/24 04:21:31;;;;;;;22.50;17.73;;;;;;;13.85;47.74;101420.59;4824678;29;97965;-75
2021/06/24 04:24:02;;;;;;;22.35;18.13;;;;;;;13.88;47.62;101420.63;4809745;29;96933;-74
2021/06/24 04:26:30;;;;;;;14.40;12.27;;;;;;;13.85;47.72;101425.94;4822294;29;98759;-75
2021/06/24 04:28:59;;;;;;;13.23;11.00;;;;;;;13.85;47.59;101420.59;4804033;29;99922;-75
2021/06/24 04:31:27;;;;;;;14.55;10.48;;;;;;;13.85;47.65;101418.84;4816274;29;98232;-75
2021/06/24 04:33:59;;;;;;;14.30;9.65;;;;;;;13.84;47.64;101411.66;4838757;28;97647;-72
2021/06/24 04:36:34;;;;;;;12.88;9.27;;;;;;;13.85;47.52;101412.56;4823011;29;99026;-74
2021/06/24 04:39:14;;;;;;;12.65;10.10;;;;;;;13.86;47.56;101417.06;4804744;29;99637;-74
2021/06/24 04:41:42;;;;;;;10.80;9.55;;;;;;;13.86;47.52;101412.59;4807931;29;98198;-75
2021/06/24 04:44:13;;;;;;;11.15;9.63;;;;;;;13.88;47.55;101416.19;4823705;29;98224;-74
2021/06/24 04:46:43;;;;;;;10.85;9.60;;;;;;;13.91;47.49;101416.28;4807820;29;100852;-75
2021/06/24 04:49:13;;;;;;;13.93;10.13;;;;;;;13.93;47.48;101425.19;4810492;29;99350;-75
2021/06/24 04:51:43;;;;;;;12.98;9.93;;;;;;;13.94;47.45;101424.34;4826313;29;97280;-74
2021/06/24 04:54:14;;;;;;;11.73;9.50;;;;;;;13.95;47.42;101420.78;4809343;29;97484;-75
2021/06/24 04:56:44;;;;;;;14.27;9.25;;;;;;;14.00;47.22;101421.78;4806586;29;99029;-75
2021/06/24 04:59:14;;;;;;;12.73;10.18;;;;;;;14.00;47.17;101424.47;4810635;29;99538;-75
2021/06/24 05:02:00;;;;;;;12.73;9.18;;;;;;;14.02;47.16;101436.06;4821690;29;97896;-75
2021/06/24 05:04:46;;;;;;;10.90;8.98;;;;;;;14.06;47.06;101432.56;4824101;29;97651;-76
2021/06/24 05:07:14;;;;;;;12.38;9.43;;;;;;;14.08;46.90;101446.88;4824171;29;99370;-75
2021/06/24 05:09:44;;;;;;;14.13;9.88;;;;;;;14.11;46.72;101448.72;4822390;29;99483;-76
2021/06/24 05:12:12;;;;;;;10.43;9.00;;;;;;;14.12;46.91;101464.81;4826233;29;98114;-76
2021/06/24 05:14:41;;;;;;;10.52;8.63;;;;;;;14.12;46.70;101458.53;4817675;29;97414;-74
2021/06/24 05:17:13;;;;;;;11.13;8.50;;;;;;;14.12;46.84;101463.91;4818665;29;98758;-74
2021/06/24 05:19:42;;;;;;;9.95;8.75;;;;;;;14.13;46.74;101463.91;4822656;29;98227;-75
2021/06/24 05:22:10;;;;;;;10.52;8.73;;;;;;;14.17;46.72;101472.03;4821349;29;97916;-76
2021/06/24 05:24:39;;;;;;;12.85;8.88;;;;;;;14.21;46.62;101458.69;4803788;29;98328;-75
2021/06/24 05:27:09;;;;;;;13.00;8.38;;;;;;;14.22;46.71;101456.94;4822071;29;100552;-75
2021/06/24 05:29:37;;;;;;;16.15;9.65;;;;;;;14.27;46.75;101456.13;4808692;29;99317;-74
2021/06/24 05:32:05;;;;;;;12.15;9.07;;;;;;;14.29;46.54;101470.44;4823496;29;97631;-74
2021/06/24 05:34:33;;;;;;;11.13;8.57;;;;;;;14.31;46.55;101474.06;4826383;29;97530;-77
2021/06/24 05:37:03;;;;;;;13.95;8.85;;;;;;;14.34;46.42;101467.84;4824741;29;98776;-75
2021/06/24 05:39:31;;;;;;;13.48;9.50;;;;;;;14.37;46.25;101473.25;4823485;29;100079;-75
2021/06/24 05:41:59;;;;;;;12.55;9.68;;;;;;;14.39;46.59;101468.84;4824258;29;97096;-76
2021/06/24 05:44:30;;;;;;;9.07;8.02;;;;;;;14.40;46.33;101467.94;4822825;29;99277;-75
2021/06/24 05:47:00;;;;;;;9.80;8.15;;;;;;;14.44;46.35;101473.38;4824833;29;97942;-76
2021/06/24 05:49:28;;;;;;;12.05;8.13;;;;;;;14.46;46.58;101470.72;4809621;29;100412;-77
2021/06/24 05:51:56;;;;;;;9.68;8.15;;;;;;;14.49;46.29;101474.34;4823162;29;97381;-76
2021/06/24 05:54:24;;;;;;;9.60;7.57;;;;;;;14.50;46.52;101472.59;4824417;29;97046;-75
2021/06/24 05:56:51;;;;;;;12.13;8.27;;;;;;;14.53;46.21;101478.91;4808025;29;99318;-76
2021/06/24 05:59:19;;;;;;;8.82;7.82;;;;;;;14.60;46.25;101477.22;4824286;29;101056;-76
2021/06/24 06:01:48;;;;;;;9.27;7.97;;;;;;;14.60;45.96;101474.56;4825062;29;97335;-76
2021/06/24 06:04:16;;;;;;;9.85;7.53;;;;;;;14.59;46.13;101479.00;4824476;29;97226;-75
2021/06/24 06:06:44;;;;;;;10.70;7.97;;;;;;;14.67;45.91;101481.81;4823881;29;100374;-76
2021/06/24 06:09:12;;;;;;;10.45;7.15;;;;;;;14.68;46.21;101483.63;4808526;29;100498;-75
2021/06/24 06:11:43;;;;;;;10.48;8.43;;;;;;;14.69;46.23;101482.72;4824509;29;96873;-75
2021/06/24 06:14:11;;;;;;;10.93;7.75;;;;;;;14.74;46.06;101491.72;4825528;29;97606;-74
2021/06/24 06:16:39;;;;;;;9.02;7.15;;;;;;;14.77;46.25;101486.44;4808336;29;99927;-74
2021/06/24 06:19:08;;;;;;;9.40;8.15;;;;;;;14.77;46.29;101489.13;4825022;29;100374;-75
2021/06/24 06:21:36;;;;;;;13.57;7.50;;;;;;;14.80;46.01;101497.19;4807555;29;96857;-75
2021/06/24 06:24:05;;;;;;;10.30;7.82;;;;;;;14.88;46.14;101495.53;4823708;29;96967;-75
2021/06/24 06:26:33;;;;;;;13.57;7.82;;;;;;;14.88;46.20;101496.41;4808291;29;97671;-76
2021/06/24 06:29:03;;;;;;;10.32;7.82;;;;;;;14.84;46.20;101497.28;4806218;29;99200;-75
2021/06/24 06:31:32;;;;;;;10.45;7.78;;;;;;;14.85;46.11;101493.72;4825159;29;96938;-75
2021/06/24 06:34:00;;;;;;;8.27;7.50;;;;;;;14.87;46.13;101500.00;4821015;29;97262;-76
2021/06/24 06:36:31;;;;;;;12.18;8.23;;;;;;;14.80;46.42;101495.44;4822613;29;99329;-75
2021/06/24 06:38:59;;;;;;;11.70;8.18;;;;;;;14.78;46.68;101496.28;4824659;29;97711;-75
2021/06/24 06:41:27;;;;;;;11.50;7.95;;;;;;;14.80;46.28;101495.44;4825515;29;97065;-75
2021/06/24 06:43:55;;;;;;;10.55;8.45;;;;;;;14.81;46.24;101502.56;4821815;29;98167;-76
2021/06/24 06:46:23;;;;;;;9.38;7.90;;;;;;;14.83;46.41;101495.47;4822018;29;99352;-74
2021/06/24 06:48:52;;;;;;;9.00;7.80;;;;;;;14.89;46.08;101505.38;4823497;29;98678;-75
2021/06/24 06:51:23;;;;;;;11.52;8.07;;;;;;;14.93;46.11;101507.22;4823794;29;96815;-76
2021/06/24 06:53:52;;;;;;;11.10;8.02;;;;;;;14.94;45.99;101504.56;4824205;29;97462;-75
2021/06/24 06:56:20;;;;;;;13.50;9.77;;;;;;;14.97;46.16;101509.09;4822920;29;99585;-75
2021/06/24 06:58:48;;;;;;;15.02;10.30;;;;;;;14.97;46.08;101509.97;4823324;29;97470;-74
2021/06/24 07:01:16;;;;;;;9.85;7.72;;;;;;;15.00;45.87;101509.13;4822712;29;97857;-76
2021/06/24 07:03:44;;;;;;;12.13;7.53;;;;;;;14.91;46.11;101500.94;4822568;29;97264;-74
2021/06/24 07:06:13;;;;;;;19.52;13.50;;;;;;;14.85;46.47;101499.06;4824929;29;98768;-74
2021/06/24 07:08:41;;;;;;;10.98;7.93;;;;;;;14.84;46.52;101493.69;4822496;29;100233;-75
2021/06/24 07:11:11;;;;;;;10.18;7.38;;;;;;;14.91;46.47;101495.56;4823592;29;96922;-76
2021/06/24 07:13:39;;;;;;;10.55;7.18;;;;;;;14.96;46.04;101491.19;4824370;29;97559;-74
2021/06/24 07:16:06;;;;;;;9.48;6.88;;;;;;;14.97;46.12;101490.31;4822001;29;99291;-75
2021/06/24 07:18:34;;;;;;;8.45;6.70;;;;;;;14.98;46.35;101490.34;4822723;29;100325;-74
2021/06/24 07:21:03;;;;;;;14.45;9.45;;;;;;;15.02;45.93;101486.81;4822496;29;96845;-74
2021/06/24 07:23:31;;;;;;;19.45;11.82;;;;;;;15.06;46.20;101487.75;4822444;29;97273;-74
2021/06/24 07:25:59;;;;;;;15.30;9.55;;;;;;;15.07;46.25;101487.78;4820493;29;101011;-76
2021/06/24 07:28:28;;;;;;;8.63;7.80;;;;;;;15.14;45.72;101486.06;4806754;29;98481;-76
2021/06/24 07:30:56;;;;;;;12.43;7.70;;;;;;;15.20;45.56;101475.44;4824664;29;97545;-75
2021/06/24 07:33:24;;;;;;;13.27;8.23;;;;;;;15.24;45.63;101476.38;4808087;29;98281;-75
2021/06/24 07:35:52;;;;;;;11.98;8.07;;;;;;;15.24;46.09;101471.91;4823680;29;99047;-75
2021/06/24 07:38:20;;;;;;;12.32;7.97;;;;;;;15.24;45.73;101471.00;4822081;29;100439;-75
2021/06/24 07:40:47;;;;;;;11.13;8.63;;;;;;;15.28;45.91;101468.41;4825389;29;96944;-76
2021/06/24 07:43:15;;;;;;;13.93;8.25;;;;;;;15.34;45.54;101465.81;4828904;29;97711;-75
2021/06/24 07:45:44;;;;;;;11.88;7.90;;;;;;;15.40;45.60;101462.31;4824915;29;100772;-76
2021/06/24 07:48:12;;;;;;;14.95;8.02;;;;;;;15.43;45.38;101468.59;4809682;29;100573;-75
2021/06/24 07:50:40;;;;;;;9.45;8.45;;;;;;;15.45;45.49;101453.44;4828003;29;97196;-75
2021/06/24 07:53:08;;;;;;;15.20;8.35;;;;;;;15.50;45.06;101451.69;4825256;29;97669;-75
2021/06/24 07:55:37;;;;;;;14.30;7.72;;;;;;;15.56;45.32;101458.91;4827688;29;99273;-76
2021/06/24 07:58:07;;;;;;;11.07;7.60;;;;;;;15.58;45.45;101450.00;4826224;29;98780;-75
2021/06/24 08:00:36;;;;;;;9.07;7.38;;;;;;;15.61;45.29;101458.09;4825144;29;96876;-75
2021/06/24 08:03:25;;;;;;;10.25;7.72;;;;;;;15.65;45.02;101461.75;4827622;29;97527;-75
2021/06/24 08:05:53;;;;;;;11.40;7.55;;;;;;;15.69;45.21;101461.78;4825608;29;99828;-76
2021/06/24 08:08:21;;;;;;;9.10;8.05;;;;;;;15.73;45.04;101451.97;4827083;29;99286;-77
2021/06/24 08:10:48;;;;;;;9.48;7.32;;;;;;;15.74;45.14;101459.16;4826032;29;98126;-75
2021/06/24 08:13:16;;;;;;;47.05;28.40;;;;;;;15.75;45.20;101452.88;4827700;29;97368;-74
2021/06/24 08:15:44;;;;;;;14.27;10.30;;;;;;;16.02;45.00;101456.78;4823032;29;96976;-74
2021/06/24 08:18:12;;;;;;;21.20;10.80;;;;;;;15.95;45.16;101448.63;4823707;29;100019;-74
2021/06/24 08:20:41;;;;;;;9.70;7.82;;;;;;;15.97;45.00;101452.22;4825564;29;96976;-74
2021/06/24 08:23:09;;;;;;;11.68;7.47;;;;;;;16.00;45.08;101446.88;4826489;29;96737;-74
2021/06/24 08:25:37;;;;;;;13.75;7.82;;;;;;;16.03;44.92;101436.22;4809655;29;99582;-75
2021/06/24 08:28:06;;;;;;;12.00;8.23;;;;;;;16.08;45.23;101432.69;4825255;29;98920;-74
2021/06/24 08:30:36;;;;;;;9.07;6.97;;;;;;;16.15;44.82;101432.72;4827718;29;96945;-74
2021/06/24 08:33:04;;;;;;;11.20;7.63;;;;;;;16.19;44.84;101437.25;4825801;29;97980;-74
2021/06/24 08:35:32;;;;;;;13.15;8.38;;;;;;;16.23;44.96;101433.69;4826652;29;98125;-74
2021/06/24 08:38:01;;;;;;;7.95;6.65;;;;;;;16.26;44.73;101428.34;4824370;29;99259;-74
2021/06/24 08:40:29;;;;;;;10.07;6.85;;;;;;;16.35;44.56;101433.78;4826815;29;97678;-74
2021/06/24 08:42:57;;;;;;;15.55;12.05;;;;;;;16.40;44.40;101429.34;4825602;29;97996;-74
2021/06/24 08:45:24;;;;;;;15.68;10.18;;;;;;;16.41;44.69;101417.72;4826639;29;100024;-75
2021/06/24 08:47:53;;;;;;;13.35;7.47;;;;;;;16.45;44.58;101425.78;4823635;29;99461;-75
2021/06/24 08:50:21;;;;;;;9.02;6.97;;;;;;;16.49;44.53;101421.38;4810451;29;98053;-74
2021/06/24 08:52:50;;;;;;;25.17;17.75;;;;;;;16.50;44.61;101421.38;4827081;29;97287;-75
2021/06/24 08:55:20;;;;;;;29.90;18.95;;;;;;;16.57;44.22;101420.53;4826884;29;97778;-74
2021/06/24 08:57:49;;;;;;;24.63;16.90;;;;;;;16.63;44.26;101414.28;4824721;29;100282;-75
2021/06/24 09:00:18;;;;;;;16.25;11.57;;;;;;;16.65;43.95;101421.47;4826048;29;96839;-76
2021/06/24 09:02:47;;;;;;;9.00;6.80;;;;;;;16.70;44.36;101418.81;4826289;29;97163;-75
2021/06/24 09:05:16;;;;;;;9.18;6.82;;;;;;;16.74;43.96;101416.16;4824092;29;99853;-74
2021/06/24 09:07:48;;;;;;;12.40;6.82;;;;;;;16.79;43.85;101424.28;4826572;29;98010;-75
2021/06/24 09:10:16;;;;;;;18.52;7.95;;;;;;;16.86;43.85;101428.78;4826555;29;97069;-74
2021/06/24 09:12:55;;;;;;;13.15;8.63;;;;;;;16.88;43.59;101432.41;4825509;29;99612;-74
2021/06/24 09:15:24;;;;;;;14.90;10.63;;;;;;;16.91;43.78;101433.31;4840600;28;100171;-74
2021/06/24 09:17:53;;;;;;;7.53;6.82;;;;;;;16.96;43.55;101430.66;4824666;29;98886;-75
2021/06/24 09:20:32;;;;;;;8.60;7.72;;;;;;;16.92;43.27;101435.13;4825220;29;98032;-76
2021/06/24 09:23:08;;;;;;;8.95;7.20;;;;;;;16.86;43.21;101434.16;4824255;29;98225;-75
2021/06/24 09:25:37;;;;;;;10.25;7.45;;;;;;;16.84;43.85;101430.56;4823909;29;99863;-76
2021/06/24 09:28:07;;;;;;;11.57;6.63;;;;;;;16.84;43.70;101430.56;4826574;29;98559;-76
2021/06/24 09:30:36;;;;;;;9.48;7.38;;;;;;;16.85;43.67;101422.50;4809465;29;98192;-75
2021/06/24 09:33:09;;;;;;;9.23;6.78;;;;;;;16.93;43.56;101434.22;4817997;29;97537;-74
2021/06/24 09:35:37;;;;;;;10.75;6.30;;;;;;;16.98;43.51;101434.25;4827176;29;97781;-75
2021/06/24 09:38:07;;;;;;;10.80;6.68;;;;;;;17.03;43.38;101432.47;4825584;29;99676;-75
2021/06/24 09:40:42;;;;;;;7.22;6.18;;;;;;;17.10;43.41;101431.63;4808635;29;97952;-75
2021/06/24 09:43:17;;;;;;;8.93;6.53;;;;;;;17.15;43.32;101434.31;4825428;29;96981;-75
2021/06/24 09:46:05;;;;;;;9.90;8.45;;;;;;;17.11;43.67;101424.47;4825005;29;99657;-75
2021/06/24 09:48:35;;;;;;;7.45;6.78;;;;;;;17.08;43.56;101436.09;4825759;29;98380;-75
2021/06/24 09:51:14;;;;;;;9.57;6.97;;;;;;;17.02;43.59;101431.56;4825827;29;97353;-75
2021/06/24 09:53:50;;;;;;;7.53;6.30;;;;;;;17.04;43.65;101434.25;4824429;29;97596;-75
2021/06/24 09:56:23;;;;;;;6.97;5.88;;;;;;;17.03;43.40;101433.38;4821993;29;100835;-75
2021/06/24 09:58:56;;;;;;;8.00;6.35;;;;;;;17.06;43.76;101432.50;4808968;29;99107;-75
2021/06/24 10:01:29;;;;;;;11.68;8.82;;;;;;;17.05;43.62;101428.88;4808641;29;97270;-75
2021/06/24 10:03:58;;;;;;;13.65;9.05;;;;;;;17.07;43.51;101427.09;4826156;29;97702;-75
2021/06/24 10:06:26;;;;;;;13.90;8.05;;;;;;;17.10;43.61;101423.53;4823544;29;97677;-75
2021/06/24 10:08:54;;;;;;;7.35;5.97;;;;;;;17.12;43.68;101431.63;4825394;29;98280;-76
2021/06/24 10:11:23;;;;;;;8.68;6.30;;;;;;;17.15;43.64;101429.84;4829915;28;97552;-75
2021/06/24 10:13:53;;;;;;;12.40;6.80;;;;;;;17.15;43.49;101427.16;4840276;28;97878;-75
2021/06/24 10:16:23;;;;;;;6.88;5.88;;;;;;;17.14;43.40;101424.47;4807064;29;100593;-74
2021/06/24 10:18:51;;;;;;;6.32;5.32;;;;;;;17.14;43.51;101428.06;4825784;29;97784;-74
2021/06/24 10:21:19;;;;;;;5.78;5.28;;;;;;;17.14;43.64;101436.13;4824455;29;97857;-74
2021/06/24 10:23:50;;;;;;;6.78;5.78;;;;;;;17.10;43.45;101428.94;4825318;29;97222;-75
2021/06/24 10:26:19;;;;;;;12.00;6.47;;;;;;;17.09;43.50;101427.09;4809082;29;97533;-75
2021/06/24 10:28:47;;;;;;;7.88;5.35;;;;;;;17.05;43.46;101430.72;4823973;29;97740;-76
2021/06/24 10:31:43;;;;;;;7.55;5.60;;;;;;;17.01;43.32;101431.56;4825365;29;97768;-75
2021/06/24 10:34:11;;;;;;;9.65;6.00;;;;;;;17.02;43.50;101430.66;4808257;29;97060;-76
2021/06/24 10:36:39;;;;;;;12.57;10.27;;;;;;;16.99;43.25;101428.88;4822664;29;100776;-75
2021/06/24 10:39:07;;;;;;;15.93;12.50;;;;;;;16.98;43.43;101419.00;4825670;29;97679;-75
2021/06/24 10:42:03;;;;;;;11.27;7.22;;;;;;;16.99;43.30;101425.28;4824179;29;99287;-75
2021/06/24 10:44:52;;;;;;;6.43;5.50;;;;;;;17.01;43.34;101416.34;4815592;29;97203;-74
2021/06/24 10:47:32;;;;;;;5.78;5.22;;;;;;;17.03;43.20;101413.66;4821462;29;100572;-75
2021/06/24 10:50:41;;;;;;;5.85;4.95;;;;;;;17.06;43.11;101425.31;4823727;29;97648;-76
2021/06/24 10:53:47;;;;;;;11.18;5.50;;;;;;;17.09;42.90;101411.88;4807237;29;98094;-75
2021/06/24 10:56:45;;;;;;;5.68;5.07;;;;;;;17.12;42.69;101408.31;4821382;29;97575;-74
2021/06/24 10:59:33;;;;;;;8.23;4.47;;;;;;;17.18;42.52;101405.66;4824286;29;97832;-74
2021/06/24 11:02:11;;;;;;;7.50;4.70;;;;;;;17.20;41.68;101405.66;4808922;29;99561;-75
2021/06/24 11:04:44;;;;;;;6.15;5.28;;;;;;;17.20;42.54;101401.16;4822535;29;97253;-75
2021/06/24 11:07:34;;;;;;;6.32;4.72;;;;;;;17.21;42.28;101397.59;4823230;29;97143;-76
2021/06/24 11:10:25;;;;;;;6.28;5.13;;;;;;;17.26;42.29;101398.50;4835290;28;98992;-74
2021/06/24 11:13:00;;;;;;;6.20;4.60;;;;;;;17.34;42.20;101402.13;4823654;28;97876;-75
2021/06/24 11:15:55;;;;;;;5.15;4.65;;;;;;;17.39;42.00;101400.38;4839612;28;97378;-76
2021/06/24 11:18:46;;;;;;;6.68;4.10;;;;;;;17.45;41.66;101388.72;4826168;29;98188;-75
2021/06/24 11:21:21;;;;;;;4.13;3.75;;;;;;;17.52;41.78;101393.22;4825119;29;99237;-77
2021/06/24 11:23:52;;;;;;;4.10;3.80;;;;;;;17.57;41.66;101383.38;4827029;29;98195;-74
2021/06/24 11:26:28;;;;;;;5.05;4.53;;;;;;;17.66;41.38;101389.69;4825620;29;97445;-74
2021/06/24 11:29:00;;;;;;;7.70;4.80;;;;;;;17.67;41.38;101387.88;4828727;29;97132;-75
2021/06/24 11:31:37;;;;;;;5.18;4.43;;;;;;;17.53;40.76;101387.84;4825494;29;99356;-74
2021/06/24 11:34:13;;;;;;;6.60;5.32;;;;;;;17.37;41.37;101388.69;4825827;29;98072;-75
2021/06/24 11:36:48;;;;;;;5.75;5.00;;;;;;;17.33;41.51;101391.38;4810285;29;96827;-75
2021/06/24 11:39:24;;;;;;;6.10;5.20;;;;;;;17.32;41.52;101387.78;4811171;29;96936;-75